createdAt,value
2023-05-19T00:02:44.482Z,99453.34
2023-05-19T00:05:46.722Z,99459.03
2023-05-19T00:08:49.669Z,99454.56
2023-05-19T00:11:53.366Z,99449.31
2023-05-19T00:14:55.495Z,99450.22
2023-05-19T00:17:58.291Z,99443.31
2023-05-19T00:21:00.594Z,99443.38
2023-05-19T00:24:02.395Z,99445.16
2023-05-19T00:27:06.442Z,99445.88
2023-05-19T00:30:09.371Z,99436.94
2023-05-19T00:33:11.408Z,99442.13
2023-05-19T00:36:14.034Z,99439.44
2023-05-19T00:39:15.923Z,99440.31
2023-05-19T00:42:21.909Z,99435.94
2023-05-19T00:45:24.644Z,99433.28
2023-05-19T00:48:26.669Z,99431.63
2023-05-19T00:51:29.732Z,99431.88
2023-05-19T00:54:32.552Z,99432.09
2023-05-19T00:57:36.317Z,99424.19
2023-05-19T01:00:39.736Z,99433.13
2023-05-19T01:03:43.153Z,99425.97
2023-05-19T01:06:45.430Z,99432.09
2023-05-19T01:09:47.799Z,99432.25
2023-05-19T01:12:51.011Z,99423.56
2023-05-19T01:15:58.044Z,99427.34
2023-05-19T01:19:01.942Z,99429.47
2023-05-19T01:22:13.443Z,99426.22
2023-05-19T01:25:29.915Z,99424.50
2023-05-19T01:28:46.435Z,99430.72
2023-05-19T01:31:50.534Z,99432.63
2023-05-19T01:34:53.778Z,99433.50
2023-05-19T01:37:56.704Z,99438.03
2023-05-19T01:40:58.915Z,99431.78
2023-05-19T01:44:00.836Z,99432.88
2023-05-19T01:47:04.227Z,99432.03
2023-05-19T01:50:06.771Z,99432.19
2023-05-19T01:53:08.595Z,99441.03
2023-05-19T01:56:10.916Z,99434.97
2023-05-19T01:59:22.371Z,99443.00
2023-05-19T02:02:31.475Z,99435.00
2023-05-19T02:05:38.808Z,99438.44
2023-05-19T02:08:43.144Z,99445.41
2023-05-19T02:11:47.346Z,99434.53
2023-05-19T02:14:50.481Z,99428.09
2023-05-19T02:17:55.436Z,99427.13
2023-05-19T02:20:57.798Z,99426.19
2023-05-19T02:23:59.683Z,99425.31
2023-05-19T02:27:01.565Z,99420.03
2023-05-19T02:30:03.496Z,99409.47
2023-05-19T02:33:07.734Z,99412.09
2023-05-19T02:36:10.698Z,99414.69
2023-05-19T02:39:13.203Z,99407.63
2023-05-19T02:42:17.780Z,99413.84
2023-05-19T02:45:19.518Z,99411.22
2023-05-19T02:48:22.815Z,99404.34
2023-05-19T02:51:24.784Z,99400.78
2023-05-19T02:54:26.586Z,99400.78
2023-05-19T02:57:29.243Z,99400.78
2023-05-19T03:00:31.356Z,99392.94
2023-05-19T03:03:35.303Z,99401.06
2023-05-19T03:06:38.749Z,99400.19
2023-05-19T03:09:40.507Z,99404.56
2023-05-19T03:12:42.556Z,99397.38
2023-05-19T03:15:45.171Z,99393.75
2023-05-19T03:18:48.812Z,99392.94
2023-05-19T03:21:50.953Z,99400.19
2023-05-19T03:24:54.438Z,99400.38
2023-05-19T03:27:57.024Z,99405.84
2023-05-19T03:30:59.109Z,99398.03
2023-05-19T03:34:06.223Z,99405.28
2023-05-19T03:37:08.299Z,99400.16
2023-05-19T03:40:13.126Z,99396.81
2023-05-19T03:43:17.752Z,99396.81
2023-05-19T03:46:25.799Z,99406.72
2023-05-19T03:49:55.007Z,99401.41
2023-05-19T03:53:25.149Z,99404.81
2023-05-19T03:56:28.758Z,99394.16
2023-05-19T03:59:31.441Z,99395.09
2023-05-19T04:02:33.445Z,99394.22
2023-05-19T04:05:36.768Z,99411.13
2023-05-19T04:08:39.117Z,99412.06
2023-05-19T04:11:41.067Z,99408.38
2023-05-19T04:14:42.956Z,99411.88
2023-05-19T04:17:45.289Z,99411.06
2023-05-19T04:20:49.124Z,99412.91
2023-05-19T04:23:50.851Z,99420.00
2023-05-19T04:26:53.754Z,99414.56
2023-05-19T04:29:56.273Z,99420.69
2023-05-19T04:32:59.341Z,99415.16
2023-05-19T04:36:11.548Z,99413.34
2023-05-19T04:39:15.735Z,99418.50
2023-05-19T04:42:20.350Z,99418.41
2023-05-19T04:45:24.374Z,99423.59
2023-05-19T04:48:31.065Z,99418.13
2023-05-19T04:51:35.874Z,99419.75
2023-05-19T04:54:38.175Z,99423.13
2023-05-19T04:57:40.827Z,99416.72
2023-05-19T05:00:43.187Z,99416.50
2023-05-19T05:03:45.336Z,99416.91
2023-05-19T05:06:49.640Z,99421.06
2023-05-19T05:09:53.026Z,99425.28
2023-05-19T05:12:55.307Z,99418.75
2023-05-19T05:15:57.765Z,99414.00
2023-05-19T05:19:03.513Z,99406.78
2023-05-19T05:22:07.463Z,99410.09
2023-05-19T05:25:13.854Z,99411.66
2023-05-19T05:28:15.779Z,99408.78
2023-05-19T05:31:18.438Z,99407.63
2023-05-19T05:34:20.348Z,99410.19
2023-05-19T05:37:23.725Z,99416.19
2023-05-19T05:40:25.925Z,99415.22
2023-05-19T05:43:28.517Z,99407.00
2023-05-19T05:46:34.277Z,99420.06
2023-05-19T05:49:38.233Z,99412.66
2023-05-19T05:52:45.816Z,99417.69
2023-05-19T05:55:48.235Z,99406.59
2023-05-19T05:58:52.080Z,99418.81
2023-05-19T06:01:53.953Z,99414.97
2023-05-19T06:04:56.198Z,99413.03
2023-05-19T06:07:59.589Z,99410.09
2023-05-19T06:11:08.435Z,99411.59
2023-05-19T06:14:11.353Z,99407.97
2023-05-19T06:17:40.499Z,99408.75
2023-05-19T06:20:42.411Z,99417.41
2023-05-19T06:23:45.923Z,99414.47
2023-05-19T06:26:47.954Z,99417.66
2023-05-19T06:29:51.731Z,99411.28
2023-05-19T06:32:54.379Z,99412.72
2023-05-19T06:35:56.578Z,99410.72
2023-05-19T06:39:02.582Z,99407.69
2023-05-19T06:42:07.809Z,99405.59
2023-05-19T06:45:32.732Z,99413.50
2023-05-19T06:48:37.289Z,99411.41
2023-05-19T06:51:40.016Z,99411.22
2023-05-19T06:54:43.654Z,99414.13
2023-05-19T06:57:46.397Z,99408.19
2023-05-19T07:00:48.968Z,99413.44
2023-05-19T07:03:52.467Z,99416.19
2023-05-19T07:06:56.219Z,99412.44
2023-05-19T07:10:00.115Z,99404.53
2023-05-19T07:13:03.228Z,99411.50
2023-05-19T07:16:07.632Z,99409.63
2023-05-19T07:19:09.855Z,99406.53
2023-05-19T07:22:11.873Z,99398.19
2023-05-19T07:25:15.366Z,99398.72
2023-05-19T07:28:17.410Z,99397.44
2023-05-19T07:31:19.510Z,99396.81
2023-05-19T07:34:22.156Z,99393.13
2023-05-19T07:37:23.998Z,99388.50
2023-05-19T07:40:27.504Z,99386.41
2023-05-19T07:43:29.839Z,99394.16
2023-05-19T07:46:31.979Z,99391.53
2023-05-19T07:49:33.750Z,99396.50
2023-05-19T07:52:35.890Z,99398.63
2023-05-19T07:55:39.226Z,99396.03
2023-05-19T07:58:41.121Z,99397.59
2023-05-19T08:01:47.317Z,99395.91
2023-05-19T08:04:49.627Z,99391.75
2023-05-19T08:07:51.773Z,99400.19
2023-05-19T08:10:56.192Z,99392.41
2023-05-19T08:13:58.048Z,99389.72
2023-05-19T08:17:00.022Z,99386.94
2023-05-19T08:20:01.982Z,99389.78
2023-05-19T08:23:03.935Z,99386.78
2023-05-19T08:26:10.306Z,99388.81
2023-05-19T08:29:12.232Z,99377.06
2023-05-19T08:32:14.673Z,99381.19
2023-05-19T08:35:17.399Z,99376.19
2023-05-19T08:38:19.561Z,99379.69
2023-05-19T08:41:23.436Z,99371.34
2023-05-19T08:44:25.377Z,99375.34
2023-05-19T08:47:28.652Z,99369.03
2023-05-19T08:50:31.627Z,99372.84
2023-05-19T08:53:37.089Z,99367.66
2023-05-19T08:56:42.464Z,99366.34
2023-05-19T08:59:44.442Z,99359.22
2023-05-19T09:02:59.695Z,99354.09
2023-05-19T09:06:04.531Z,99356.31
2023-05-19T09:09:06.666Z,99356.31
2023-05-19T09:12:11.633Z,99350.50
2023-05-19T09:15:14.047Z,99355.56
2023-05-19T09:18:16.618Z,99363.25
2023-05-19T09:21:18.762Z,99358.78
2023-05-19T09:24:21.565Z,99347.25
2023-05-19T09:27:25.757Z,99349.84
2023-05-19T09:30:27.809Z,99348.03
2023-05-19T09:33:29.944Z,99336.56
2023-05-19T09:36:32.568Z,99338.19
2023-05-19T09:39:34.784Z,99335.44
2023-05-19T09:42:41.957Z,99330.81
2023-05-19T09:45:43.877Z,99333.97
2023-05-19T09:48:45.970Z,99334.34
2023-05-19T09:51:49.792Z,99332.78
2023-05-19T09:54:52.275Z,99338.44
2023-05-19T09:57:57.953Z,99329.59
2023-05-19T10:01:01.540Z,99320.72
2023-05-19T10:04:05.920Z,99326.56
2023-05-19T10:07:10.388Z,99325.69
2023-05-19T10:10:14.208Z,99317.97
2023-05-19T10:13:17.974Z,99318.00
2023-05-19T10:16:22.065Z,99319.75
2023-05-19T10:19:24.961Z,99306.56
2023-05-19T10:22:29.934Z,99310.56
2023-05-19T10:25:34.676Z,99292.59
2023-05-19T10:28:43.234Z,99306.84
2023-05-19T10:31:49.668Z,99287.03
2023-05-19T10:35:02.682Z,99295.13
2023-05-19T10:38:17.397Z,99287.22
2023-05-19T10:41:24.947Z,99291.63
2023-05-19T10:44:40.225Z,99294.47
2023-05-19T10:47:43.500Z,99292.81
2023-05-19T10:50:47.995Z,99287.00
2023-05-19T10:53:51.758Z,99285.59
2023-05-19T10:56:59.414Z,99294.09
2023-05-19T11:00:11.958Z,99280.41
2023-05-19T11:03:18.903Z,99276.09
2023-05-19T11:06:25.332Z,99284.63
2023-05-19T11:09:37.889Z,99288.81
2023-05-19T11:12:43.559Z,99285.59
2023-05-19T11:15:48.462Z,99278.63
2023-05-19T11:18:53.915Z,99281.84
2023-05-19T11:22:11.091Z,99277.47
2023-05-19T11:25:13.238Z,99290.31
2023-05-19T11:28:19.868Z,99286.13
2023-05-19T11:31:23.196Z,99276.63
2023-05-19T11:34:35.783Z,99268.91
2023-05-19T11:37:40.428Z,99268.72
2023-05-19T11:40:44.821Z,99270.13
2023-05-19T11:43:49.469Z,99268.09
2023-05-19T11:47:00.284Z,99268.66
2023-05-19T11:50:04.092Z,99256.66
2023-05-19T11:53:13.644Z,99258.50
2023-05-19T11:56:15.985Z,99251.69
2023-05-19T11:59:29.595Z,99253.75
2023-05-19T12:02:37.065Z,99249.66
2023-05-19T12:05:53.336Z,99255.38
2023-05-19T12:08:56.528Z,99245.59
2023-05-19T12:11:59.183Z,99242.19
2023-05-19T12:15:03.634Z,99252.38
2023-05-19T12:18:05.811Z,99246.22
2023-05-19T12:21:09.718Z,99253.91
2023-05-19T12:24:12.345Z,99249.97
2023-05-19T12:27:17.477Z,99247.16
2023-05-19T12:30:27.118Z,99243.94
2023-05-19T12:33:31.174Z,99249.72
2023-05-19T12:36:39.181Z,99240.53
2023-05-19T12:39:43.237Z,99242.72
2023-05-19T12:42:48.763Z,99241.25
2023-05-19T12:45:52.792Z,99239.78
2023-05-19T12:48:59.864Z,99224.13
2023-05-19T12:52:14.071Z,99226.09
2023-05-19T12:55:19.214Z,99236.41
2023-05-19T12:58:24.306Z,99236.53
2023-05-19T13:01:30.822Z,99233.28
2023-05-19T13:04:35.427Z,99230.25
2023-05-19T13:07:45.635Z,99227.78
2023-05-19T13:10:50.987Z,99235.00
2023-05-19T13:13:56.900Z,99232.31
2023-05-19T13:17:01.211Z,99229.94
2023-05-19T13:20:04.939Z,99229.41
2023-05-19T13:23:13.841Z,99232.22
2023-05-19T13:26:16.383Z,99231.88
2023-05-19T13:29:18.493Z,99223.13
2023-05-19T13:32:30.981Z,99235.06
2023-05-19T13:35:43.903Z,99225.06
2023-05-19T13:38:57.636Z,99224.22
2023-05-19T13:41:59.906Z,99225.19
2023-05-19T13:45:02.509Z,99222.03
2023-05-19T13:48:07.590Z,99223.03
2023-05-19T13:51:10.481Z,99221.13
2023-05-19T13:54:14.628Z,99216.66
2023-05-19T13:57:17.006Z,99218.31
2023-05-19T14:00:19.513Z,99208.44
2023-05-19T14:03:26.063Z,99217.91
2023-05-19T14:06:30.016Z,99210.00
2023-05-19T14:09:40.504Z,99207.31
2023-05-19T14:13:07.908Z,99203.22
2023-05-19T14:16:07.197Z,99200.38
2023-05-19T14:19:10.163Z,99194.06
2023-05-19T14:22:13.531Z,99187.63
2023-05-19T14:25:21.112Z,99188.22
2023-05-19T14:28:30.132Z,99192.63
2023-05-19T14:31:33.113Z,99203.81
2023-05-19T14:34:37.246Z,99203.03
2023-05-19T14:37:40.962Z,99206.81
2023-05-19T14:40:48.585Z,99199.13
2023-05-19T14:43:56.510Z,99207.34
2023-05-19T14:46:59.195Z,99193.53
2023-05-19T14:50:01.477Z,99197.19
2023-05-19T14:53:06.669Z,99196.34
2023-05-19T14:56:11.250Z,99200.16
2023-05-19T14:59:13.740Z,99199.06
2023-05-19T15:02:17.821Z,99201.31
2023-05-19T15:05:20.022Z,99200.47
2023-05-19T15:08:23.535Z,99196.72
2023-05-19T15:11:34.321Z,99202.28
2023-05-19T15:14:39.606Z,99197.16
2023-05-19T15:17:47.006Z,99204.22
2023-05-19T15:20:49.474Z,99195.78
2023-05-19T15:23:53.228Z,99199.34
2023-05-19T15:27:07.873Z,99197.84
2023-05-19T15:30:11.830Z,99192.00
2023-05-19T15:33:14.149Z,99193.69
2023-05-19T15:36:17.300Z,99200.00
2023-05-19T15:39:19.493Z,99198.50
2023-05-19T15:42:24.899Z,99197.34
2023-05-19T15:45:27.166Z,99203.53
2023-05-19T15:48:29.978Z,99199.34
2023-05-19T15:51:32.467Z,99200.78
2023-05-19T15:54:35.573Z,99196.31
2023-05-19T15:57:40.408Z,99189.94
2023-05-19T16:00:44.196Z,99182.00
2023-05-19T16:03:47.848Z,99179.88
2023-05-19T16:06:50.288Z,99170.72
2023-05-19T16:09:52.958Z,99180.72
2023-05-19T16:12:56.943Z,99171.44
2023-05-19T16:15:59.562Z,99176.13
2023-05-19T16:19:01.868Z,99170.25
2023-05-19T16:22:04.017Z,99173.34
2023-05-19T16:25:08.499Z,99171.19
2023-05-19T16:28:12.183Z,99168.19
2023-05-19T16:31:14.496Z,99164.59
2023-05-19T16:34:17.692Z,99161.84
2023-05-19T16:37:20.001Z,99169.44
2023-05-19T16:40:22.188Z,99170.09
2023-05-19T16:43:26.418Z,99168.31
2023-05-19T16:46:34.738Z,99167.81
2023-05-19T16:49:37.719Z,99167.59
2023-05-19T16:52:40.188Z,99173.78
2023-05-19T16:55:43.534Z,99172.81
2023-05-19T16:58:49.465Z,99174.06
2023-05-19T17:01:51.534Z,99173.41
2023-05-19T17:04:54.105Z,99173.31
2023-05-19T17:07:56.976Z,99168.38
2023-05-19T17:11:00.235Z,99167.91
2023-05-19T17:14:07.842Z,99161.66
2023-05-19T17:17:10.144Z,99162.03
2023-05-19T17:20:13.464Z,99161.47
2023-05-19T17:23:18.065Z,99168.47
2023-05-19T17:26:23.230Z,99158.75
2023-05-19T17:29:29.595Z,99158.06
2023-05-19T17:32:38.845Z,99159.13
2023-05-19T17:35:41.450Z,99160.53
2023-05-19T17:38:43.247Z,99173.44
2023-05-19T17:41:44.940Z,99173.03
2023-05-19T17:44:48.030Z,99169.34
2023-05-19T17:47:49.989Z,99167.94
2023-05-19T17:50:52.194Z,99172.03
2023-05-19T17:53:54.207Z,99167.03
2023-05-19T17:56:57.979Z,99162.94
2023-05-19T18:00:01.614Z,99161.59
2023-05-19T18:03:06.848Z,99170.69
2023-05-19T18:06:08.988Z,99164.00
2023-05-19T18:09:11.196Z,99158.81
2023-05-19T18:12:13.068Z,99152.84
2023-05-19T18:15:16.412Z,99156.94
2023-05-19T18:18:18.175Z,99159.19
2023-05-19T18:21:20.124Z,99154.75
2023-05-19T18:24:22.348Z,99155.03
2023-05-19T18:27:23.975Z,99157.88
2023-05-19T18:30:27.198Z,99158.41
2023-05-19T18:33:31.104Z,99159.50
2023-05-19T18:36:35.027Z,99160.84
2023-05-19T18:39:37.116Z,99159.50
2023-05-19T18:42:38.950Z,99167.13
2023-05-19T18:45:42.117Z,99170.19
2023-05-19T18:48:43.989Z,99167.06
2023-05-19T18:51:48.628Z,99170.75
2023-05-19T18:54:50.946Z,99170.25
2023-05-19T18:57:54.196Z,99169.78
2023-05-19T19:00:57.345Z,99164.72
2023-05-19T19:03:59.704Z,99167.84
2023-05-19T19:07:01.578Z,99162.78
2023-05-19T19:10:03.505Z,99169.19
2023-05-19T19:13:06.001Z,99165.84
2023-05-19T19:16:09.153Z,99174.41
2023-05-19T19:19:11.041Z,99181.72
2023-05-19T19:22:12.806Z,99181.97
2023-05-19T19:25:14.745Z,99183.22
2023-05-19T19:28:16.646Z,99184.44
2023-05-19T19:31:19.789Z,99185.59
2023-05-19T19:34:22.400Z,99186.78
2023-05-19T19:37:24.331Z,99202.16
2023-05-19T19:40:26.147Z,99207.91
2023-05-19T19:43:27.809Z,99207.34
2023-05-19T19:46:31.175Z,99212.03
2023-05-19T19:49:32.908Z,99213.19
2023-05-19T19:52:34.731Z,99208.84
2023-05-19T19:55:36.692Z,99210.00
2023-05-19T19:58:38.340Z,99209.84
2023-05-19T20:01:41.535Z,99206.38
2023-05-19T20:04:43.424Z,99210.88
2023-05-19T20:07:45.484Z,99218.34
2023-05-19T20:10:48.097Z,99215.09
2023-05-19T20:13:49.844Z,99218.72
2023-05-19T20:16:52.917Z,99213.63
2023-05-19T20:19:54.725Z,99215.59
2023-05-19T20:22:56.762Z,99213.94
2023-05-19T20:26:10.846Z,99206.09
2023-05-19T20:29:13.378Z,99218.72
2023-05-19T20:32:16.473Z,99214.44
2023-05-19T20:35:21.451Z,99225.25
2023-05-19T20:38:23.178Z,99215.75
2023-05-19T20:41:24.953Z,99216.75
2023-05-19T20:44:26.642Z,99213.28
2023-05-19T20:47:30.707Z,99215.44
2023-05-19T20:50:32.678Z,99218.91
2023-05-19T20:53:34.628Z,99227.81
2023-05-19T20:56:36.464Z,99220.00
2023-05-19T20:59:38.274Z,99226.44
2023-05-19T21:02:41.407Z,99222.88
2023-05-19T21:05:43.387Z,99226.50
2023-05-19T21:08:45.061Z,99231.94
2023-05-19T21:11:48.018Z,99225.09
2023-05-19T21:14:49.702Z,99226.19
2023-05-19T21:17:52.999Z,99214.69
2023-05-19T21:20:54.808Z,99213.91
2023-05-19T21:23:56.858Z,99220.22
2023-05-19T21:26:58.610Z,99233.75
2023-05-19T21:30:00.518Z,99231.38
2023-05-19T21:33:03.858Z,99225.13
2023-05-19T21:36:05.970Z,99228.88
2023-05-19T21:39:07.693Z,99231.63
2023-05-19T21:42:09.503Z,99234.44
2023-05-19T21:45:11.567Z,99236.38
2023-05-19T21:48:14.749Z,99235.66
2023-05-19T21:51:16.879Z,99235.66
2023-05-19T21:54:18.631Z,99232.81
2023-05-19T21:57:20.384Z,99239.00
2023-05-19T22:00:22.061Z,99239.81
2023-05-19T22:03:25.460Z,99243.53
2023-05-19T22:06:27.568Z,99245.25
2023-05-19T22:09:29.518Z,99244.47
2023-05-19T22:12:31.737Z,99232.03
2023-05-19T22:15:33.405Z,99233.97
2023-05-19T22:18:36.579Z,99230.53
2023-05-19T22:21:38.309Z,99233.28
2023-05-19T22:24:40.628Z,99230.69
2023-05-19T22:27:42.368Z,99229.97
2023-05-19T22:30:44.255Z,99224.69
2023-05-19T22:33:47.811Z,99225.63
2023-05-19T22:36:49.565Z,99230.03
2023-05-19T22:39:51.800Z,99234.63
2023-05-19T22:42:53.560Z,99239.28
2023-05-19T22:45:55.317Z,99227.84
2023-05-19T22:48:58.455Z,99237.72
2023-05-19T22:52:00.220Z,99232.50
2023-05-19T22:55:07.394Z,99233.53
2023-05-19T22:58:11.423Z,99238.94
2023-05-19T23:01:19.213Z,99229.03
2023-05-19T23:04:22.438Z,99235.47
2023-05-19T23:07:24.309Z,99239.03
2023-05-19T23:10:26.099Z,99236.38
2023-05-19T23:13:29.082Z,99241.78
2023-05-19T23:16:31.098Z,99238.44
2023-05-19T23:19:35.357Z,99236.88
2023-05-19T23:22:37.353Z,99240.69
2023-05-19T23:25:39.036Z,99235.59
2023-05-19T23:28:41.739Z,99243.75
2023-05-19T23:31:43.750Z,99244.81
2023-05-19T23:34:48.870Z,99242.31
2023-05-19T23:37:50.533Z,99238.09
2023-05-19T23:40:52.407Z,99238.19
2023-05-19T23:43:54.179Z,99232.81
2023-05-19T23:46:56.153Z,99239.94
2023-05-19T23:49:59.260Z,99241.94
2023-05-19T23:53:01.179Z,99235.06
2023-05-19T23:56:02.995Z,99232.59
2023-05-19T23:59:04.940Z,99231.75
